Time;durP1;ratioP1;P1;durP2;ratioP2;P2;SDS_P1;SDS_P2;PMS_P1;PMS_P2;Temp;Humidity;BMP_temperature;BMP_pressure;BME280_temperature;BME280_humidity;BME280_pressure;Samples;Min_cycle;Max_cycle;Signal;HPM_P1;HPM_P2
2022/06/30 00:01:33;;;;;;;4.17;3.60;;;22.60;76.80;23.20;96194.00;;;;5065503;28;20756;-83
2022/06/30 00:04:00;;;;;;;4.87;3.50;;;22.60;77.00;23.20;96191.00;;;;5062249;28;20644;-83
2022/06/30 00:06:28;;;;;;;4.20;3.80;;;22.50;77.00;23.20;96191.00;;;;5059541;28;20288;-83
2022/06/30 00:08:56;;;;;;;3.73;3.50;;;22.50;77.20;23.20;96189.00;;;;5054371;28;20599;-82
2022/06/30 00:11:23;;;;;;;4.87;3.90;;;22.60;78.20;23.20;96194.00;;;;5068793;28;20458;-83
2022/06/30 00:13:51;;;;;;;3.57;3.37;;;22.50;77.40;23.20;96188.00;;;;5065509;28;20247;-82
2022/06/30 00:16:18;;;;;;;3.57;3.27;;;22.50;77.20;23.10;96183.00;;;;5067606;28;20279;-82
2022/06/30 00:18:46;;;;;;;4.00;3.60;;;22.50;77.00;23.10;96179.00;;;;5071744;28;20196;-82
2022/06/30 00:21:13;;;;;;;3.63;3.37;;;22.50;76.90;23.10;96186.00;;;;5062345;28;20212;-82
2022/06/30 00:23:42;;;;;;;3.50;3.20;;;22.50;76.80;23.10;96181.00;;;;5072616;28;20271;-82
2022/06/30 00:26:09;;;;;;;4.70;3.60;;;22.50;76.80;23.10;96178.00;;;;5066419;28;20196;-83
2022/06/30 00:28:36;;;;;;;4.00;3.70;;;22.50;76.70;23.00;96178.00;;;;5063798;28;20197;-82
2022/06/30 00:31:03;;;;;;;4.03;3.73;;;22.40;76.70;23.00;96176.00;;;;5071904;28;20227;-82
2022/06/30 00:33:30;;;;;;;3.67;3.33;;;22.40;76.70;23.00;96174.00;;;;5065124;28;20223;-83
2022/06/30 00:35:57;;;;;;;3.80;3.50;;;22.40;76.70;23.00;96167.00;;;;5068434;28;20385;-83
2022/06/30 00:38:25;;;;;;;4.17;3.73;;;22.30;76.80;23.00;96168.00;;;;5072133;28;20224;-82
2022/06/30 00:40:53;;;;;;;4.37;3.97;;;22.30;77.00;22.90;96173.00;;;;5065491;28;20196;-83
2022/06/30 00:43:20;;;;;;;4.30;4.00;;;22.30;77.00;22.90;96162.00;;;;5073242;28;20255;-82
2022/06/30 00:45:50;;;;;;;4.20;3.83;;;22.30;76.90;22.90;96168.00;;;;5071004;28;20228;-83
2022/06/30 00:48:19;;;;;;;3.53;3.33;;;22.30;76.90;22.80;96168.00;;;;5071693;28;20795;-82
2022/06/30 00:50:46;;;;;;;3.70;3.40;;;22.20;76.80;22.80;96167.00;;;;5073167;28;20224;-82
2022/06/30 00:53:14;;;;;;;3.50;3.30;;;22.20;76.80;22.80;96159.00;;;;5074142;28;20786;-82
2022/06/30 00:55:42;;;;;;;3.90;3.63;;;22.20;76.80;22.80;96155.00;;;;5068178;28;20256;-82
2022/06/30 00:58:11;;;;;;;4.40;4.00;;;22.20;76.90;22.70;96157.00;;;;5074434;28;20192;-82
2022/06/30 01:00:41;;;;;;;4.33;3.93;;;22.20;77.10;22.70;96149.00;;;;5064378;28;20203;-83
2022/06/30 01:03:10;;;;;;;3.87;3.57;;;22.10;77.00;22.70;96156.00;;;;5066200;28;20239;-83
2022/06/30 01:05:38;;;;;;;4.97;4.03;;;22.10;77.70;22.70;96150.00;;;;5071680;28;20611;-82
2022/06/30 01:08:06;;;;;;;4.53;3.83;;;22.10;77.00;22.60;96157.00;;;;5067398;28;20669;-83
2022/06/30 01:13:20;;;;;;;4.03;3.73;;;22.00;76.90;22.60;96156.00;;;;5070325;28;20227;-83
2022/06/30 01:15:47;;;;;;;3.80;3.50;;;22.00;76.80;22.60;96158.00;;;;5071721;28;20211;-83
2022/06/30 01:18:14;;;;;;;3.90;3.60;;;22.00;76.80;22.50;96166.00;;;;5083215;28;20677;-82
2022/06/30 01:20:41;;;;;;;5.07;3.37;;;21.90;76.70;22.50;96169.00;;;;5073069;28;20257;-81
2022/06/30 01:23:10;;;;;;;3.60;3.30;;;21.90;76.70;22.40;96156.00;;;;5075204;28;20251;-82
2022/06/30 01:25:37;;;;;;;3.60;3.30;;;21.90;76.80;22.40;96167.00;;;;5071163;28;20285;-82
2022/06/30 01:28:04;;;;;;;4.10;3.80;;;21.80;76.70;22.40;96169.00;;;;5072508;28;20231;-82
2022/06/30 01:30:32;;;;;;;3.87;3.50;;;21.80;76.80;22.30;96163.00;;;;5063257;28;20280;-82
2022/06/30 01:32:59;;;;;;;4.60;4.17;;;21.70;76.70;22.30;96164.00;;;;5079636;22;20237;-83
2022/06/30 01:35:26;;;;;;;4.20;3.90;;;21.70;76.90;22.30;96155.00;;;;5054852;28;20228;-84
2022/06/30 01:37:56;;;;;;;4.13;3.73;;;21.70;77.10;22.20;96159.00;;;;5039539;28;20221;-83
2022/06/30 01:40:28;;;;;;;4.23;3.83;;;21.70;77.70;22.20;96164.00;;;;5037448;28;20197;-83
2022/06/30 01:42:56;;;;;;;3.70;3.50;;;21.70;77.30;22.20;96164.00;;;;5031980;28;20202;-83
2022/06/30 01:45:24;;;;;;;4.17;3.87;;;21.60;77.30;22.20;96157.00;;;;5019966;28;20203;-83
2022/06/30 01:47:53;;;;;;;4.47;4.17;;;21.60;77.30;22.20;96159.00;;;;5026401;28;20217;-83
2022/06/30 01:50:24;;;;;;;4.40;4.00;;;21.60;78.20;22.20;96151.00;;;;5006894;28;20240;-83
2022/06/30 01:52:52;;;;;;;4.03;3.73;;;21.60;77.50;22.10;96151.00;;;;5027068;28;20542;-83
2022/06/30 01:55:20;;;;;;;4.27;3.87;;;21.60;77.60;22.10;96153.00;;;;5015683;28;20217;-83
2022/06/30 01:57:49;;;;;;;3.67;3.23;;;21.60;77.60;22.10;96151.00;;;;5043046;28;20213;-83
2022/06/30 02:00:19;;;;;;;4.00;3.60;;;21.50;77.70;22.10;96144.00;;;;5013921;28;20194;-83
2022/06/30 02:02:48;;;;;;;3.63;3.43;;;21.50;77.70;22.10;96152.00;;;;5024042;28;20198;-83
2022/06/30 02:05:17;;;;;;;3.67;3.37;;;21.50;77.70;22.10;96155.00;;;;5032743;28;20197;-83
2022/06/30 02:07:44;;;;;;;4.37;3.90;;;21.50;77.80;22.10;96156.00;;;;5032808;28;20225;-83
2022/06/30 02:10:16;;;;;;;3.83;3.60;;;21.50;77.90;22.10;96157.00;;;;5025728;28;20205;-83
2022/06/30 02:12:47;;;;;;;4.40;4.07;;;21.50;77.90;22.10;96152.00;;;;5038631;28;20206;-83
2022/06/30 02:15:20;;;;;;;4.33;3.93;;;21.50;77.90;22.10;96154.00;;;;5027558;28;20226;-83
2022/06/30 02:17:51;;;;;;;4.20;3.80;;;21.50;78.00;22.10;96156.00;;;;5025876;28;20217;-84
2022/06/30 02:20:21;;;;;;;4.97;4.53;;;21.50;78.80;22.10;96152.00;;;;5031252;28;20209;-83
2022/06/30 02:22:51;;;;;;;4.00;3.70;;;21.50;78.00;22.10;96159.00;;;;5047788;28;20205;-83
2022/06/30 02:25:19;;;;;;;4.37;3.97;;;21.50;77.80;22.10;96157.00;;;;5019207;28;20255;-84
2022/06/30 02:27:48;;;;;;;3.73;3.43;;;21.50;77.80;22.10;96156.00;;;;5033388;28;20233;-84
2022/06/30 02:30:17;;;;;;;4.70;4.30;;;21.40;77.50;22.00;96158.00;;;;5020568;28;20230;-82
2022/06/30 02:32:45;;;;;;;3.93;3.63;;;21.40;77.50;22.00;96160.00;;;;5030381;28;20265;-83
2022/06/30 02:35:13;;;;;;;4.47;4.00;;;21.40;77.50;22.00;96158.00;;;;5025810;28;20306;-83
2022/06/30 02:37:41;;;;;;;4.03;3.83;;;21.40;77.60;21.90;96161.00;;;;5013182;28;20238;-83
2022/06/30 02:40:10;;;;;;;4.23;3.93;;;21.30;77.50;21.90;96174.00;;;;5009874;28;20207;-83
2022/06/30 02:42:38;;;;;;;4.30;4.00;;;21.30;77.60;21.90;96175.00;;;;5009022;28;20208;-82
2022/06/30 02:45:07;;;;;;;4.03;3.70;;;21.30;77.60;21.90;96177.00;;;;5009360;28;20220;-83
2022/06/30 02:47:38;;;;;;;4.70;4.30;;;21.30;77.80;21.90;96178.00;;;;5029558;28;20240;-83
2022/06/30 02:50:11;;;;;;;4.60;4.20;;;21.30;77.80;21.90;96170.00;;;;5030182;28;20213;-83
2022/06/30 02:52:40;;;;;;;4.67;4.17;;;21.30;77.90;21.90;96184.00;;;;5009739;28;20229;-83
2022/06/30 02:55:09;;;;;;;5.30;4.90;;;21.30;77.70;21.90;96173.00;;;;5010314;28;20222;-82
2022/06/30 02:57:39;;;;;;;4.87;4.10;;;21.30;77.70;21.80;96175.00;;;;5029914;28;20226;-82
2022/06/30 03:00:11;;;;;;;4.00;3.70;;;21.20;77.70;21.80;96183.00;;;;5030517;28;20216;-83
2022/06/30 03:02:40;;;;;;;3.93;3.63;;;21.20;77.70;21.80;96182.00;;;;5030031;28;20198;-83
2022/06/30 03:05:10;;;;;;;4.70;4.30;;;21.20;77.60;21.70;96181.00;;;;5027464;28;20225;-82
2022/06/30 03:07:40;;;;;;;3.57;3.37;;;21.20;77.50;21.70;96183.00;;;;5027513;28;20221;-82
2022/06/30 03:10:09;;;;;;;3.73;3.43;;;21.20;77.50;21.70;96177.00;;;;5027545;28;20194;-82
2022/06/30 03:12:37;;;;;;;4.00;3.73;;;21.10;77.60;21.70;96172.00;;;;5008806;28;20269;-82
2022/06/30 03:15:06;;;;;;;4.00;3.80;;;21.10;77.50;21.70;96174.00;;;;5008228;28;20262;-83
2022/06/30 03:17:34;;;;;;;4.00;3.70;;;21.10;77.70;21.60;96172.00;;;;5026914;28;20222;-82
2022/06/30 03:20:03;;;;;;;4.37;3.97;;;21.00;77.80;21.60;96175.00;;;;5027141;28;20198;-82
2022/06/30 03:22:30;;;;;;;4.53;4.13;;;21.00;78.60;21.60;96176.00;;;;5027261;28;20259;-82
2022/06/30 03:25:00;;;;;;;4.47;4.07;;;21.00;78.10;21.60;96194.00;;;;5030432;28;20251;-82
2022/06/30 03:27:27;;;;;;;4.40;4.00;;;21.00;78.40;21.60;96190.00;;;;5037767;28;20591;-82
2022/06/30 03:29:55;;;;;;;4.07;3.77;;;21.00;78.40;21.60;96186.00;;;;5049702;28;20193;-82
2022/06/30 03:32:22;;;;;;;4.60;4.23;;;21.00;78.40;21.60;96193.00;;;;5049158;28;20197;-82
2022/06/30 03:34:49;;;;;;;4.63;3.70;;;21.00;78.50;21.60;96180.00;;;;5038209;28;20260;-82
2022/06/30 03:37:18;;;;;;;4.50;4.10;;;21.00;78.50;21.60;96179.00;;;;5030609;28;20229;-82
2022/06/30 03:39:45;;;;;;;4.67;4.27;;;21.00;78.50;21.60;96184.00;;;;5031198;28;20212;-82
2022/06/30 03:42:13;;;;;;;4.40;4.00;;;21.00;78.50;21.60;96186.00;;;;5031574;28;20256;-82
2022/06/30 03:44:40;;;;;;;4.03;3.60;;;21.00;78.40;21.60;96177.00;;;;5026301;28;20224;-82
2022/06/30 03:47:11;;;;;;;4.07;3.67;;;21.00;78.40;21.60;96169.00;;;;5030887;28;20229;-82
2022/06/30 03:49:38;;;;;;;4.77;4.13;;;21.00;78.50;21.60;96188.00;;;;5023765;28;20612;-82
2022/06/30 03:52:07;;;;;;;3.87;3.67;;;21.00;78.50;21.60;96176.00;;;;5019083;28;20229;-82
2022/06/30 03:54:36;;;;;;;4.30;3.90;;;21.00;78.50;21.60;96178.00;;;;5012003;28;20214;-82
2022/06/30 03:57:04;;;;;;;3.90;3.70;;;21.00;78.50;21.60;96178.00;;;;5025256;28;20217;-82
2022/06/30 03:59:31;;;;;;;3.90;3.60;;;21.00;78.50;21.60;96174.00;;;;5026048;28;20304;-82
2022/06/30 04:01:59;;;;;;;3.90;3.57;;;21.00;78.60;21.60;96191.00;;;;5031952;28;20207;-82
2022/06/30 04:04:26;;;;;;;5.03;4.50;;;21.00;78.60;21.60;96191.00;;;;5041642;28;20298;-83
2022/06/30 04:06:53;;;;;;;3.57;3.27;;;21.00;78.70;21.60;96191.00;;;;5023421;28;20268;-83
2022/06/30 04:09:20;;;;;;;3.63;3.33;;;21.00;78.70;21.60;96189.00;;;;5014625;28;20466;-82
2022/06/30 04:11:49;;;;;;;3.67;3.47;;;21.00;78.80;21.60;96189.00;;;;5030746;28;20209;-82
2022/06/30 04:14:16;;;;;;;3.80;3.60;;;21.00;79.00;21.60;96186.00;;;;5019017;28;20199;-83
2022/06/30 04:16:44;;;;;;;3.77;3.47;;;21.00;79.10;21.60;96182.00;;;;5023116;28;20233;-82
2022/06/30 04:19:12;;;;;;;3.83;3.53;;;21.00;79.30;21.60;96191.00;;;;5030138;28;20217;-82
2022/06/30 04:21:40;;;;;;;3.67;3.47;;;21.00;79.40;21.60;96194.00;;;;5033688;28;20198;-82
2022/06/30 04:24:07;;;;;;;4.23;3.87;;;21.00;79.40;21.70;96196.00;;;;5028777;28;20202;-82
2022/06/30 04:26:35;;;;;;;5.20;4.13;;;21.00;79.50;21.70;96191.00;;;;5017454;28;20210;-83
2022/06/30 04:29:04;;;;;;;4.03;3.73;;;21.00;79.50;21.70;96189.00;;;;5010373;28;20261;-80
2022/06/30 04:34:16;;;;;;;4.83;4.53;;;21.00;79.70;21.70;96211.00;;;;5023783;28;20228;-85
2022/06/30 04:36:44;;;;;;;5.60;5.20;;;19.80;79.10;21.70;96200.00;;;;5008356;28;20226;-85
2022/06/30 04:39:11;;;;;;;4.77;4.47;;;21.00;80.00;21.70;96207.00;;;;5005419;28;20262;-85
2022/06/30 04:41:39;;;;;;;4.63;4.23;;;21.00;80.10;21.80;96204.00;;;;5003706;28;20203;-85
2022/06/30 04:44:10;;;;;;;4.37;4.07;;;21.00;80.20;21.80;96206.00;;;;5014392;28;20198;-85
2022/06/30 04:46:40;;;;;;;4.90;4.50;;;21.10;80.30;21.80;96206.00;;;;5025525;28;20218;-84
2022/06/30 04:49:08;;;;;;;5.27;4.80;;;21.10;80.30;21.90;96210.00;;;;5006015;28;20285;-84
2022/06/30 04:51:37;;;;;;;4.97;4.53;;;21.10;80.40;21.90;96219.00;;;;5005188;28;20204;-84
2022/06/30 04:54:05;;;;;;;4.50;4.10;;;21.20;80.60;21.90;96218.00;;;;5000845;28;20201;-85
2022/06/30 04:56:32;;;;;;;5.20;4.70;;;21.20;80.70;21.90;96213.00;;;;5007073;28;20237;-84
2022/06/30 04:59:01;;;;;;;6.30;4.63;;;21.20;80.80;22.00;96211.00;;;;5009006;28;20222;-85
2022/06/30 05:01:32;;;;;;;4.30;4.03;;;21.20;80.80;22.00;96209.00;;;;5018753;28;20197;-85
2022/06/30 05:03:59;;;;;;;4.57;4.23;;;21.30;81.00;22.10;96212.00;;;;5025522;28;20194;-84
2022/06/30 05:06:27;;;;;;;4.47;3.97;;;21.30;81.00;22.10;96208.00;;;;5021317;28;20229;-85
2022/06/30 05:08:56;;;;;;;10.33;4.40;;;21.30;81.00;22.20;96207.00;;;;5024953;28;20198;-84
2022/06/30 05:11:24;;;;;;;4.07;3.67;;;21.40;81.00;22.20;96201.00;;;;5014331;28;20233;-84
2022/06/30 05:13:51;;;;;;;3.73;3.43;;;21.40;80.90;22.20;96201.00;;;;5007908;28;20202;-85
2022/06/30 05:16:19;;;;;;;3.60;3.40;;;21.50;81.00;22.30;96198.00;;;;5008794;28;20623;-84
2022/06/30 05:18:49;;;;;;;4.30;3.90;;;21.50;80.90;22.30;96188.00;;;;5010798;28;20210;-85
2022/06/30 05:21:16;;;;;;;3.87;3.57;;;21.50;81.00;22.40;96190.00;;;;4993135;28;20210;-84
2022/06/30 05:26:28;;;;;;;3.63;3.33;;;21.60;80.90;22.40;96188.00;;;;5010185;28;20198;-84
2022/06/30 05:26:30;;;;;;;5.70;4.03;;;21.60;81.00;22.50;96196.00;;;;5023283;28;20217;-84
2022/06/30 05:28:57;;;;;;;4.93;3.83;;;21.70;81.00;22.50;96192.00;;;;5025839;28;20233;-84
2022/06/30 05:31:25;;;;;;;4.40;4.07;;;21.70;81.10;22.50;96194.00;;;;5006197;28;20194;-84
2022/06/30 05:33:53;;;;;;;4.13;3.83;;;21.70;81.10;22.60;96194.00;;;;5002718;28;20206;-84
2022/06/30 05:36:20;;;;;;;4.40;4.10;;;21.80;81.10;22.60;96192.00;;;;5021888;28;20245;-84
2022/06/30 05:38:48;;;;;;;3.80;3.50;;;21.80;81.10;22.70;96198.00;;;;5027775;28;20209;-84
2022/06/30 05:41:15;;;;;;;5.93;3.50;;;21.90;81.30;22.70;96194.00;;;;5012500;28;20234;-85
2022/06/30 05:43:42;;;;;;;4.73;3.73;;;21.90;81.40;22.80;96199.00;;;;5015741;28;20732;-84
2022/06/30 05:46:10;;;;;;;3.73;3.43;;;22.00;81.40;22.80;96200.00;;;;5017206;28;20631;-85
2022/06/30 05:48:37;;;;;;;4.30;3.73;;;22.00;81.40;22.90;96207.00;;;;5013685;28;20203;-84
2022/06/30 05:51:06;;;;;;;4.30;4.03;;;22.10;81.50;22.90;96204.00;;;;5022104;28;20613;-85
2022/06/30 05:53:33;;;;;;;3.97;3.73;;;22.10;81.50;23.00;96199.00;;;;5020323;28;20202;-85
2022/06/30 05:56:01;;;;;;;4.17;3.90;;;22.20;81.60;23.00;96205.00;;;;5010880;28;20253;-84
2022/06/30 05:58:28;;;;;;;4.27;3.97;;;22.20;81.50;23.00;96195.00;;;;5006610;28;20253;-84
2022/06/30 06:00:55;;;;;;;4.10;3.80;;;22.30;81.50;23.10;96204.00;;;;5001067;28;20207;-85
2022/06/30 06:03:23;;;;;;;4.50;4.20;;;22.30;81.50;23.10;96197.00;;;;5006842;28;20276;-86
2022/06/30 06:05:50;;;;;;;4.70;4.30;;;22.40;81.60;23.20;96196.00;;;;5023075;28;20202;-84
2022/06/30 06:08:19;;;;;;;5.10;4.77;;;22.40;81.60;23.30;96194.00;;;;5015249;28;20211;-84
2022/06/30 06:10:46;;;;;;;4.63;4.20;;;22.50;81.60;23.30;96202.00;;;;5001903;28;20753;-83
2022/06/30 06:13:14;;;;;;;4.80;4.33;;;22.50;81.50;23.40;96198.00;;;;5005616;28;20222;-83
2022/06/30 06:15:41;;;;;;;4.40;4.10;;;22.60;81.50;23.40;96195.00;;;;5015185;28;20216;-85
2022/06/30 06:18:09;;;;;;;4.17;3.87;;;22.60;81.60;23.50;96202.00;;;;5032505;28;20214;-85
2022/06/30 06:20:37;;;;;;;4.90;4.50;;;22.70;81.70;23.50;96191.00;;;;5004451;28;20238;-83
2022/06/30 06:23:04;;;;;;;5.40;3.90;;;22.70;81.70;23.60;96204.00;;;;5010484;28;20190;-84
2022/06/30 06:25:32;;;;;;;5.87;4.67;;;22.80;81.70;23.70;96195.00;;;;5019914;28;20244;-84
2022/06/30 06:30:45;;;;;;;4.57;4.17;;;22.90;81.70;23.80;96189.00;;;;5012645;28;20234;-83
2022/06/30 06:33:12;;;;;;;4.20;3.90;;;23.00;81.70;23.80;96193.00;;;;5000428;28;20268;-85
2022/06/30 06:35:39;;;;;;;4.70;4.30;;;23.00;81.60;23.90;96197.00;;;;4997287;28;20760;-84
2022/06/30 06:38:06;;;;;;;4.67;3.93;;;23.10;81.70;24.00;96198.00;;;;5000153;28;20645;-85
2022/06/30 06:40:35;;;;;;;4.43;4.10;;;23.10;81.60;24.10;96205.00;;;;4992376;28;20251;-86
2022/06/30 06:43:02;;;;;;;4.03;3.20;;;23.20;81.60;24.10;96208.00;;;;5009082;28;20860;-85
2022/06/30 06:45:30;;;;;;;4.27;3.80;;;23.30;81.50;24.20;96205.00;;;;5002332;28;20204;-85
2022/06/30 06:47:57;;;;;;;4.07;3.67;;;23.30;81.10;24.20;96203.00;;;;4999914;28;20632;-85
2022/06/30 06:50:24;;;;;;;3.97;3.70;;;23.40;81.00;24.30;96206.00;;;;4991508;28;20204;-85
2022/06/30 06:52:51;;;;;;;3.90;3.60;;;23.50;81.00;24.40;96196.00;;;;4992143;28;20259;-85
2022/06/30 06:55:20;;;;;;;3.47;3.27;;;23.50;80.70;24.40;96198.00;;;;4992341;28;20622;-85
2022/06/30 06:57:49;;;;;;;3.40;3.13;;;23.60;80.70;24.50;96193.00;;;;4993196;28;20214;-85
2022/06/30 07:00:18;;;;;;;5.00;3.40;;;23.70;80.70;24.60;96191.00;;;;5014756;28;20213;-85
2022/06/30 07:02:45;;;;;;;3.87;3.17;;;23.80;80.70;24.70;96191.00;;;;5002522;28;20698;-85
2022/06/30 07:05:12;;;;;;;3.80;3.50;;;23.90;80.60;24.90;96192.00;;;;4995957;28;20289;-85
2022/06/30 07:07:40;;;;;;;3.47;3.27;;;23.90;80.80;25.00;96189.00;;;;5003318;28;20264;-85
2022/06/30 07:10:09;;;;;;;3.53;3.23;;;24.10;81.10;25.20;96178.00;;;;5015156;28;20248;-85
2022/06/30 07:12:37;;;;;;;3.10;2.90;;;24.20;81.30;25.40;96185.00;;;;5011205;28;20198;-85
2022/06/30 07:15:07;;;;;;;3.20;2.80;;;24.30;81.40;25.50;96185.00;;;;5012100;28;20229;-84
2022/06/30 07:17:38;;;;;;;3.60;3.40;;;24.50;81.40;25.70;96182.00;;;;4997683;28;20228;-85
2022/06/30 07:20:07;;;;;;;3.43;3.13;;;24.60;80.90;25.90;96184.00;;;;4996846;28;20261;-86
2022/06/30 07:22:34;;;;;;;5.50;3.57;;;24.80;80.90;26.10;96190.00;;;;5025644;22;20241;-82
2022/06/30 07:25:01;;;;;;;3.43;3.07;;;24.90;80.50;26.30;96190.00;;;;5012262;28;20194;-81
2022/06/30 07:27:29;;;;;;;4.00;3.40;;;25.10;80.30;26.50;96177.00;;;;5009642;28;20412;-82
2022/06/30 07:29:56;;;;;;;3.40;3.10;;;25.20;80.00;26.60;96181.00;;;;4998548;28;20270;-82
2022/06/30 07:32:25;;;;;;;5.37;3.57;;;25.40;80.10;26.80;96186.00;;;;5016514;28;20225;-82
2022/06/30 07:34:52;;;;;;;3.57;3.27;;;25.60;79.50;27.00;96188.00;;;;5016863;28;20190;-80
2022/06/30 07:37:20;;;;;;;2.90;2.70;;;25.70;79.20;27.10;96188.00;;;;5056813;22;20256;-84
2022/06/30 07:39:47;;;;;;;2.80;2.67;;;25.90;79.30;27.30;96189.00;;;;5035338;28;20272;-84
2022/06/30 07:42:15;;;;;;;3.57;2.83;;;26.00;78.80;27.40;96187.00;;;;5035378;28;20204;-84
2022/06/30 07:44:43;;;;;;;3.40;2.97;;;26.20;78.60;27.60;96185.00;;;;5034867;28;20237;-83
2022/06/30 07:47:10;;;;;;;2.73;2.53;;;26.30;78.20;27.80;96177.00;;;;5035153;28;20316;-83
2022/06/30 07:49:40;;;;;;;3.22;2.90;;;26.50;78.20;27.90;96177.00;;;;5035409;28;20216;-84
2022/06/30 07:52:08;;;;;;;4.35;3.50;;;26.60;77.80;28.10;96174.00;;;;5034424;28;20228;-84
2022/06/30 07:54:35;;;;;;;3.35;3.05;;;26.80;77.40;28.30;96176.00;;;;5015163;28;20194;-83
2022/06/30 07:57:03;;;;;;;2.40;2.30;;;26.90;77.00;28.40;96179.00;;;;5014960;28;20226;-84
2022/06/30 07:59:30;;;;;;;2.60;2.40;;;27.10;76.50;28.60;96183.00;;;;5014899;28;20201;-84
2022/06/30 08:01:58;;;;;;;3.53;2.10;;;27.20;76.40;28.70;96175.00;;;;5032291;28;20213;-83
2022/06/30 08:04:25;;;;;;;2.47;2.38;;;27.30;76.30;28.90;96177.00;;;;5035166;28;20201;-84
2022/06/30 08:06:54;;;;;;;2.10;2.00;;;27.50;75.80;29.00;96180.00;;;;5026730;28;20222;-84
2022/06/30 08:09:22;;;;;;;2.22;2.03;;;27.60;75.50;29.20;96180.00;;;;5024131;28;20205;-85
2022/06/30 08:11:49;;;;;;;2.65;2.25;;;27.70;75.20;29.30;96176.00;;;;5024288;28;20198;-87
2022/06/30 08:14:16;;;;;;;3.30;2.80;;;27.90;74.70;29.50;96172.00;;;;5014928;28;20202;-84
2022/06/30 08:16:43;;;;;;;2.40;2.20;;;28.10;73.90;29.60;96182.00;;;;5014573;28;20221;-84
2022/06/30 08:19:10;;;;;;;3.33;2.42;;;28.20;73.80;29.80;96178.00;;;;5014826;28;20206;-84
2022/06/30 08:21:38;;;;;;;3.40;2.45;;;28.30;73.90;30.00;96183.00;;;;5014252;28;20636;-84
2022/06/30 08:24:07;;;;;;;2.08;1.92;;;28.50;73.40;30.20;96186.00;;;;5029849;28;20201;-84
2022/06/30 08:26:34;;;;;;;2.70;2.20;;;28.60;72.60;30.30;96178.00;;;;5032754;28;20271;-84
2022/06/30 08:29:01;;;;;;;2.50;2.30;;;28.80;71.70;30.50;96175.00;;;;5016751;28;20198;-84
2022/06/30 08:31:29;;;;;;;2.53;2.17;;;28.90;71.60;30.70;96185.00;;;;5018764;28;20249;-83
2022/06/30 08:33:56;;;;;;;2.50;2.30;;;29.00;70.20;30.80;96184.00;;;;5024660;28;20577;-84
2022/06/30 08:36:24;;;;;;;2.40;2.20;;;29.20;70.40;30.90;96183.00;;;;5028417;28;20197;-84
2022/06/30 08:38:51;;;;;;;2.53;2.03;;;29.40;70.60;31.10;96183.00;;;;5024961;28;20253;-84
2022/06/30 08:44:05;;;;;;;3.03;2.17;;;29.60;69.70;31.50;96184.00;;;;5033578;28;20247;-84
2022/06/30 08:46:34;;;;;;;3.42;2.22;;;29.80;69.70;31.70;96175.00;;;;5033565;28;20217;-84
2022/06/30 08:49:01;;;;;;;2.63;2.08;;;29.90;69.30;31.90;96172.00;;;;5022227;28;20193;-84
2022/06/30 08:51:30;;;;;;;2.35;2.25;;;30.10;68.50;32.00;96168.00;;;;5030032;28;20663;-84
2022/06/30 08:54:00;;;;;;;1.90;1.80;;;30.20;67.90;32.20;96169.00;;;;5013343;28;20667;-85
2022/06/30 08:56:34;;;;;;;2.70;1.90;;;30.40;67.00;32.40;96169.00;;;;5031381;28;20320;-85
2022/06/30 08:59:03;;;;;;;2.55;2.30;;;30.50;66.20;32.50;96170.00;;;;5033232;28;20194;-86
2022/06/30 09:01:31;;;;;;;2.10;2.00;;;30.60;65.70;32.70;96168.00;;;;5028256;28;20889;-84
2022/06/30 09:03:58;;;;;;;2.00;1.90;;;30.80;65.70;32.80;96162.00;;;;5031403;28;20213;-85
2022/06/30 09:06:26;;;;;;;2.25;2.08;;;30.90;65.30;33.00;96163.00;;;;5020256;28;20194;-85
2022/06/30 09:08:53;;;;;;;2.10;2.00;;;31.00;65.00;33.20;96169.00;;;;5014117;28;20623;-85
2022/06/30 09:11:20;;;;;;;2.00;1.90;;;31.20;64.90;33.40;96166.00;;;;5016696;28;20237;-85
2022/06/30 09:13:50;;;;;;;2.33;2.13;;;31.30;64.00;33.60;96168.00;;;;5021480;28;20243;-85
2022/06/30 09:16:17;;;;;;;2.53;2.03;;;31.50;63.20;33.80;96166.00;;;;5033357;28;20610;-86
2022/06/30 09:18:45;;;;;;;2.30;2.10;;;31.70;63.10;33.90;96168.00;;;;5033306;28;20217;-85
2022/06/30 09:21:17;;;;;;;2.17;1.98;;;31.80;62.30;34.00;96169.00;;;;5033745;28;20634;-85
2022/06/30 09:23:48;;;;;;;3.05;2.13;;;32.00;60.90;34.20;96167.00;;;;5026357;28;20198;-85
2022/06/30 09:26:21;;;;;;;2.10;2.00;;;32.20;61.50;34.30;96165.00;;;;5016801;28;20193;-85
2022/06/30 09:28:54;;;;;;;1.73;1.63;;;32.30;59.90;34.50;96166.00;;;;5034379;28;20251;-85
2022/06/30 09:31:34;;;;;;;2.38;2.10;;;32.50;60.40;34.60;96159.00;;;;5033713;28;20201;-86
2022/06/30 09:34:16;;;;;;;1.98;1.88;;;32.70;58.70;34.80;96166.00;;;;5013857;28;20197;-86
2022/06/30 09:36:45;;;;;;;4.00;2.28;;;32.80;59.30;34.90;96157.00;;;;5027771;28;20221;-86
2022/06/30 09:39:15;;;;;;;1.98;1.83;;;33.00;58.50;35.00;96161.00;;;;5014915;28;20597;-87
2022/06/30 09:41:45;;;;;;;2.95;2.08;;;33.20;58.70;35.20;96160.00;;;;5027746;28;20194;-85
2022/06/30 09:44:24;;;;;;;2.00;1.90;;;33.30;58.70;35.40;96152.00;;;;5032960;28;20236;-85
2022/06/30 09:47:00;;;;;;;1.88;1.77;;;33.50;57.50;35.60;96155.00;;;;5028764;28;20252;-85
2022/06/30 09:49:33;;;;;;;2.28;1.75;;;33.60;57.30;35.80;96149.00;;;;5031188;28;20243;-85
2022/06/30 09:52:00;;;;;;;3.13;1.73;;;33.70;57.60;36.00;96151.00;;;;5027424;28;20381;-85
2022/06/30 09:54:28;;;;;;;2.10;1.98;;;33.80;57.50;36.10;96147.00;;;;5030147;28;20225;-85
2022/06/30 09:57:06;;;;;;;2.35;1.98;;;34.00;57.30;36.30;96153.00;;;;5025132;28;20225;-85
2022/06/30 09:59:35;;;;;;;2.03;1.83;;;34.10;56.10;36.50;96162.00;;;;5023993;28;20232;-85
2022/06/30 10:02:07;;;;;;;2.42;2.10;;;34.30;56.90;36.60;96156.00;;;;5026901;28;20880;-85
2022/06/30 10:04:53;;;;;;;2.78;1.73;;;34.40;54.90;36.80;96158.00;;;;5013108;28;20212;-85
2022/06/30 10:07:22;;;;;;;2.83;1.90;;;34.60;54.50;36.90;96159.00;;;;5032338;28;20236;-86
2022/06/30 10:09:51;;;;;;;1.75;1.58;;;34.70;55.40;37.00;96152.00;;;;5011579;28;20210;-85
2022/06/30 10:12:23;;;;;;;2.13;1.92;;;34.90;55.10;37.10;96152.00;;;;5023646;28;20197;-85
2022/06/30 10:14:54;;;;;;;1.92;1.70;;;35.10;54.10;37.10;96155.00;;;;5031917;28;21078;-85
2022/06/30 10:17:25;;;;;;;1.50;1.40;;;35.30;54.30;37.20;96156.00;;;;5020430;28;20262;-85
2022/06/30 10:19:54;;;;;;;2.60;1.50;;;35.40;54.20;37.20;96152.00;;;;5013380;28;20249;-85
2022/06/30 10:22:23;;;;;;;3.17;1.90;;;35.60;54.50;37.30;96156.00;;;;5024761;28;20267;-85
2022/06/30 10:24:53;;;;;;;1.65;1.55;;;35.80;54.00;37.40;96156.00;;;;5031555;28;20233;-85
2022/06/30 10:27:24;;;;;;;1.52;1.40;;;35.90;53.30;37.40;96154.00;;;;5021628;28;20636;-85
2022/06/30 10:29:57;;;;;;;3.42;2.03;;;36.10;52.50;37.50;96163.00;;;;5017109;28;20221;-86
2022/06/30 10:32:48;;;;;;;2.85;1.75;;;36.20;52.10;37.50;96156.00;;;;5020295;28;20201;-85
2022/06/30 10:35:30;;;;;;;2.67;1.48;;;36.40;51.40;37.50;96156.00;;;;5020745;28;20247;-85
2022/06/30 10:38:07;;;;;;;1.63;1.52;;;36.50;52.00;37.50;96153.00;;;;5031150;28;20224;-86
2022/06/30 10:40:55;;;;;;;1.88;1.77;;;36.70;51.30;37.50;96151.00;;;;5017508;28;20206;-86
2022/06/30 10:43:23;;;;;;;1.88;1.70;;;36.90;50.80;37.60;96155.00;;;;5013722;28;20256;-86
2022/06/30 10:46:01;;;;;;;1.85;1.60;;;37.00;50.40;37.60;96141.00;;;;5029694;28;20186;-85
2022/06/30 10:48:50;;;;;;;1.70;1.60;;;37.00;49.20;37.50;96140.00;;;;5027473;28;20540;-86
2022/06/30 10:51:18;;;;;;;3.45;1.45;;;37.10;49.70;37.40;96142.00;;;;5031239;28;20201;-86
2022/06/30 10:53:55;;;;;;;2.75;1.80;;;37.10;50.10;37.40;96135.00;;;;5030959;28;20308;-86
2022/06/30 10:56:25;;;;;;;1.58;1.48;;;37.20;49.30;37.40;96140.00;;;;5032824;28;20185;-86
2022/06/30 10:59:11;;;;;;;1.60;1.50;;;37.20;49.60;37.40;96133.00;;;;5023667;28;20221;-85
2022/06/30 11:02:19;;;;;;;2.40;1.73;;;37.10;48.80;37.30;96125.00;;;;5023687;28;20785;-86
2022/06/30 11:04:48;;;;;;;2.22;1.50;;;37.10;48.40;37.20;96130.00;;;;5010891;28;20209;-86
2022/06/30 11:07:21;;;;;;;2.15;1.73;;;36.90;48.50;37.00;96122.00;;;;5028900;28;20728;-86
2022/06/30 11:09:58;;;;;;;1.63;1.50;;;36.70;48.20;36.80;96120.00;;;;5016333;28;20325;-86
2022/06/30 11:13:08;;;;;;;2.38;1.80;;;36.50;47.00;36.50;96117.00;;;;5025442;28;20197;-86
2022/06/30 11:15:55;;;;;;;1.95;1.85;;;36.20;46.90;36.20;96106.00;;;;5012988;28;20281;-86